sensor_id;sensor_type;location;lat;lon;timestamp;temperature;humidity
435;DHT22;204;48.942;9.256;2023-04-25T00:02:02;10.10;1.00
435;DHT22;204;48.942;9.256;2023-04-25T00:04:28;10.10;1.00
435;DHT22;204;48.942;9.256;2023-04-25T00:06:55;10.10;1.00
435;DHT22;204;48.942;9.256;2023-04-25T00:09:21;10.10;1.00
435;DHT22;204;48.942;9.256;2023-04-25T00:11:47;10.10;1.00
435;DHT22;204;48.942;9.256;2023-04-25T00:14:13;10.10;1.00
435;DHT22;204;48.942;9.256;2023-04-25T00:16:38;10.10;1.00
435;DHT22;204;48.942;9.256;2023-04-25T00:19:04;10.10;1.00
435;DHT22;204;48.942;9.256;2023-04-25T00:21:30;10.10;1.00
435;DHT22;204;48.942;9.256;2023-04-25T00:23:57;10.10;1.00
435;DHT22;204;48.942;9.256;2023-04-25T00:26:22;10.10;1.00
435;DHT22;204;48.942;9.256;2023-04-25T00:28:48;10.00;1.00
435;DHT22;204;48.942;9.256;2023-04-25T00:31:14;10.00;1.00
435;DHT22;204;48.942;9.256;2023-04-25T00:33:40;10.00;1.00
435;DHT22;204;48.942;9.256;2023-04-25T00:36:06;10.00;1.00
435;DHT22;204;48.942;9.256;2023-04-25T00:38:32;10.00;1.00
435;DHT22;204;48.942;9.256;2023-04-25T00:40:57;10.00;1.00
435;DHT22;204;48.942;9.256;2023-04-25T00:43:26;9.90;1.00
435;DHT22;204;48.942;9.256;2023-04-25T00:45:52;9.90;1.00
435;DHT22;204;48.942;9.256;2023-04-25T00:48:18;9.90;1.00
435;DHT22;204;48.942;9.256;2023-04-25T00:50:51;9.90;1.00
435;DHT22;204;48.942;9.256;2023-04-25T00:53:18;9.80;1.00
435;DHT22;204;48.942;9.256;2023-04-25T00:55:44;9.80;1.00
435;DHT22;204;48.942;9.256;2023-04-25T00:58:10;9.70;1.00
435;DHT22;204;48.942;9.256;2023-04-25T01:00:36;9.70;1.00
435;DHT22;204;48.942;9.256;2023-04-25T01:03:02;9.70;1.00
435;DHT22;204;48.942;9.256;2023-04-25T01:05:29;9.60;1.00
435;DHT22;204;48.942;9.256;2023-04-25T01:07:55;9.60;1.00
435;DHT22;204;48.942;9.256;2023-04-25T01:10:21;9.60;1.00
435;DHT22;204;48.942;9.256;2023-04-25T01:12:47;9.60;1.00
435;DHT22;204;48.942;9.256;2023-04-25T01:15:12;9.60;1.00
435;DHT22;204;48.942;9.256;2023-04-25T01:17:38;9.60;1.00
435;DHT22;204;48.942;9.256;2023-04-25T01:20:06;9.50;1.00
435;DHT22;204;48.942;9.256;2023-04-25T01:22:33;9.50;1.00
435;DHT22;204;48.942;9.256;2023-04-25T01:24:59;9.50;1.00
435;DHT22;204;48.942;9.256;2023-04-25T01:27:25;9.40;1.00
435;DHT22;204;48.942;9.256;2023-04-25T01:29:52;9.40;1.00
435;DHT22;204;48.942;9.256;2023-04-25T01:32:19;9.40;1.00
435;DHT22;204;48.942;9.256;2023-04-25T01:34:45;9.40;1.00
435;DHT22;204;48.942;9.256;2023-04-25T01:37:11;9.40;1.00
435;DHT22;204;48.942;9.256;2023-04-25T01:39:37;9.50;1.00
435;DHT22;204;48.942;9.256;2023-04-25T01:42:02;9.50;1.00
435;DHT22;204;48.942;9.256;2023-04-25T01:44:28;9.50;1.00
435;DHT22;204;48.942;9.256;2023-04-25T01:46:54;9.50;1.00
435;DHT22;204;48.942;9.256;2023-04-25T01:49:20;9.40;1.00
435;DHT22;204;48.942;9.256;2023-04-25T01:51:45;9.40;1.00
435;DHT22;204;48.942;9.256;2023-04-25T01:54:13;9.40;1.00
435;DHT22;204;48.942;9.256;2023-04-25T01:56:39;9.40;1.00
435;DHT22;204;48.942;9.256;2023-04-25T01:59:05;9.40;1.00
435;DHT22;204;48.942;9.256;2023-04-25T02:01:31;9.40;1.00
435;DHT22;204;48.942;9.256;2023-04-25T02:03:57;9.30;1.00
435;DHT22;204;48.942;9.256;2023-04-25T02:06:23;9.30;1.00
435;DHT22;204;48.942;9.256;2023-04-25T02:08:48;9.30;1.00
435;DHT22;204;48.942;9.256;2023-04-25T02:11:14;9.30;1.00
435;DHT22;204;48.942;9.256;2023-04-25T02:13:40;9.30;1.00
435;DHT22;204;48.942;9.256;2023-04-25T02:16:05;9.20;1.00
435;DHT22;204;48.942;9.256;2023-04-25T02:18:31;9.20;1.00
435;DHT22;204;48.942;9.256;2023-04-25T02:20:59;9.20;1.00
435;DHT22;204;48.942;9.256;2023-04-25T02:23:25;9.20;1.00
435;DHT22;204;48.942;9.256;2023-04-25T02:25:50;9.30;1.00
435;DHT22;204;48.942;9.256;2023-04-25T02:28:17;9.30;1.00
435;DHT22;204;48.942;9.256;2023-04-25T02:30:42;9.30;1.00
435;DHT22;204;48.942;9.256;2023-04-25T02:33:08;9.30;1.00
435;DHT22;204;48.942;9.256;2023-04-25T02:35:33;9.30;1.00
435;DHT22;204;48.942;9.256;2023-04-25T02:37:59;9.30;1.00
435;DHT22;204;48.942;9.256;2023-04-25T02:40:25;9.30;1.00
435;DHT22;204;48.942;9.256;2023-04-25T02:42:50;9.30;1.00
435;DHT22;204;48.942;9.256;2023-04-25T02:45:16;9.30;1.00
435;DHT22;204;48.942;9.256;2023-04-25T02:47:42;9.40;1.00
435;DHT22;204;48.942;9.256;2023-04-25T02:50:08;9.40;1.00
435;DHT22;204;48.942;9.256;2023-04-25T02:52:33;9.40;1.00
435;DHT22;204;48.942;9.256;2023-04-25T02:54:59;9.40;1.00
435;DHT22;204;48.942;9.256;2023-04-25T02:57:24;9.40;1.00
435;DHT22;204;48.942;9.256;2023-04-25T02:59:50;9.40;1.00
435;DHT22;204;48.942;9.256;2023-04-25T03:02:16;9.40;1.00
435;DHT22;204;48.942;9.256;2023-04-25T03:04:41;9.40;1.00
435;DHT22;204;48.942;9.256;2023-04-25T03:07:07;9.40;1.00
435;DHT22;204;48.942;9.256;2023-04-25T03:09:33;9.40;1.00
435;DHT22;204;48.942;9.256;2023-04-25T03:11:58;9.40;1.00
435;DHT22;204;48.942;9.256;2023-04-25T03:14:24;9.50;1.00
435;DHT22;204;48.942;9.256;2023-04-25T03:16:50;9.50;1.00
435;DHT22;204;48.942;9.256;2023-04-25T03:19:15;9.50;1.00
435;DHT22;204;48.942;9.256;2023-04-25T03:21:42;9.50;1.00
435;DHT22;204;48.942;9.256;2023-04-25T03:24:08;9.50;1.00
435;DHT22;204;48.942;9.256;2023-04-25T03:26:33;9.50;1.00
435;DHT22;204;48.942;9.256;2023-04-25T03:28:59;9.50;1.00
435;DHT22;204;48.942;9.256;2023-04-25T03:31:24;9.50;1.00
435;DHT22;204;48.942;9.256;2023-04-25T03:33:50;9.50;1.00
435;DHT22;204;48.942;9.256;2023-04-25T03:36:15;9.50;1.00
435;DHT22;204;48.942;9.256;2023-04-25T03:38:41;9.50;1.00
435;DHT22;204;48.942;9.256;2023-04-25T03:41:07;9.50;1.00
435;DHT22;204;48.942;9.256;2023-04-25T03:43:33;9.40;1.00
435;DHT22;204;48.942;9.256;2023-04-25T03:45:58;9.40;1.00
435;DHT22;204;48.942;9.256;2023-04-25T03:48:25;9.50;1.00
435;DHT22;204;48.942;9.256;2023-04-25T03:50:52;9.50;1.00
435;DHT22;204;48.942;9.256;2023-04-25T03:53:17;9.50;1.00
435;DHT22;204;48.942;9.256;2023-04-25T03:55:43;9.50;1.00
435;DHT22;204;48.942;9.256;2023-04-25T03:58:08;9.50;1.00
435;DHT22;204;48.942;9.256;2023-04-25T04:00:35;9.40;1.00
435;DHT22;204;48.942;9.256;2023-04-25T04:03:00;9.40;1.00
435;DHT22;204;48.942;9.256;2023-04-25T04:05:26;9.50;1.00
435;DHT22;204;48.942;9.256;2023-04-25T04:07:53;9.50;1.00
435;DHT22;204;48.942;9.256;2023-04-25T04:10:18;9.50;1.00
435;DHT22;204;48.942;9.256;2023-04-25T04:12:44;9.50;1.00
435;DHT22;204;48.942;9.256;2023-04-25T04:15:10;9.60;1.00
435;DHT22;204;48.942;9.256;2023-04-25T04:17:36;9.60;1.00
435;DHT22;204;48.942;9.256;2023-04-25T04:20:01;9.50;1.00
435;DHT22;204;48.942;9.256;2023-04-25T04:22:29;9.40;1.00
435;DHT22;204;48.942;9.256;2023-04-25T04:24:54;9.30;1.00
435;DHT22;204;48.942;9.256;2023-04-25T04:27:22;9.30;1.00
435;DHT22;204;48.942;9.256;2023-04-25T04:29:47;9.20;1.00
435;DHT22;204;48.942;9.256;2023-04-25T04:32:14;9.20;1.00
435;DHT22;204;48.942;9.256;2023-04-25T04:34:40;9.20;1.00
435;DHT22;204;48.942;9.256;2023-04-25T04:37:06;9.20;1.00
435;DHT22;204;48.942;9.256;2023-04-25T04:39:33;9.20;1.00
435;DHT22;204;48.942;9.256;2023-04-25T04:41:59;9.20;1.00
435;DHT22;204;48.942;9.256;2023-04-25T04:44:27;9.30;1.00
435;DHT22;204;48.942;9.256;2023-04-25T04:46:54;9.40;1.00
435;DHT22;204;48.942;9.256;2023-04-25T04:49:20;9.40;1.00
435;DHT22;204;48.942;9.256;2023-04-25T04:51:46;9.60;1.00
435;DHT22;204;48.942;9.256;2023-04-25T04:54:12;9.70;1.00
435;DHT22;204;48.942;9.256;2023-04-25T04:56:38;9.90;1.00
435;DHT22;204;48.942;9.256;2023-04-25T04:59:03;10.00;1.00
435;DHT22;204;48.942;9.256;2023-04-25T05:01:29;10.10;1.00
435;DHT22;204;48.942;9.256;2023-04-25T05:03:57;10.10;1.00
435;DHT22;204;48.942;9.256;2023-04-25T05:06:26;10.10;1.00
435;DHT22;204;48.942;9.256;2023-04-25T05:08:52;10.20;1.00
435;DHT22;204;48.942;9.256;2023-04-25T05:11:18;10.20;1.00
435;DHT22;204;48.942;9.256;2023-04-25T05:13:44;10.20;1.00
435;DHT22;204;48.942;9.256;2023-04-25T05:16:11;10.30;1.00
435;DHT22;204;48.942;9.256;2023-04-25T05:18:36;10.40;1.00
435;DHT22;204;48.942;9.256;2023-04-25T05:21:02;10.40;1.00
435;DHT22;204;48.942;9.256;2023-04-25T05:23:28;10.50;1.00
435;DHT22;204;48.942;9.256;2023-04-25T05:25:55;10.50;1.00
435;DHT22;204;48.942;9.256;2023-04-25T05:28:21;10.60;1.00
435;DHT22;204;48.942;9.256;2023-04-25T05:30:46;10.70;1.00
435;DHT22;204;48.942;9.256;2023-04-25T05:33:12;10.80;1.00
435;DHT22;204;48.942;9.256;2023-04-25T05:35:38;10.90;1.00
435;DHT22;204;48.942;9.256;2023-04-25T05:38:03;11.00;1.00
435;DHT22;204;48.942;9.256;2023-04-25T05:40:29;11.10;1.00
435;DHT22;204;48.942;9.256;2023-04-25T05:42:55;11.10;1.00
435;DHT22;204;48.942;9.256;2023-04-25T05:45:20;11.10;1.00
435;DHT22;204;48.942;9.256;2023-04-25T05:47:46;11.20;1.00
435;DHT22;204;48.942;9.256;2023-04-25T05:50:11;11.30;1.00
435;DHT22;204;48.942;9.256;2023-04-25T05:52:37;11.30;1.00
435;DHT22;204;48.942;9.256;2023-04-25T05:55:03;11.20;1.00
435;DHT22;204;48.942;9.256;2023-04-25T05:57:29;11.10;1.00
435;DHT22;204;48.942;9.256;2023-04-25T05:59:55;11.10;1.00
435;DHT22;204;48.942;9.256;2023-04-25T06:02:21;11.20;1.00
435;DHT22;204;48.942;9.256;2023-04-25T06:04:50;11.20;1.00
435;DHT22;204;48.942;9.256;2023-04-25T06:07:16;11.30;1.00
435;DHT22;204;48.942;9.256;2023-04-25T06:09:42;11.30;1.00
435;DHT22;204;48.942;9.256;2023-04-25T06:12:08;11.50;1.00
435;DHT22;204;48.942;9.256;2023-04-25T06:14:34;11.70;1.00
435;DHT22;204;48.942;9.256;2023-04-25T06:16:59;11.90;1.00
435;DHT22;204;48.942;9.256;2023-04-25T06:19:32;12.10;1.00
435;DHT22;204;48.942;9.256;2023-04-25T06:21:58;12.30;1.00
435;DHT22;204;48.942;9.256;2023-04-25T06:24:23;12.50;1.00
435;DHT22;204;48.942;9.256;2023-04-25T06:26:49;12.60;1.00
435;DHT22;204;48.942;9.256;2023-04-25T06:29:15;12.60;1.00
435;DHT22;204;48.942;9.256;2023-04-25T06:31:40;12.60;1.00
435;DHT22;204;48.942;9.256;2023-04-25T06:34:06;12.60;1.00
435;DHT22;204;48.942;9.256;2023-04-25T06:36:31;12.70;1.00
435;DHT22;204;48.942;9.256;2023-04-25T06:38:57;12.90;1.00
435;DHT22;204;48.942;9.256;2023-04-25T06:41:22;13.10;1.00
435;DHT22;204;48.942;9.256;2023-04-25T06:43:48;13.30;1.00
435;DHT22;204;48.942;9.256;2023-04-25T06:46:14;13.60;1.00
435;DHT22;204;48.942;9.256;2023-04-25T06:48:39;13.90;1.00
435;DHT22;204;48.942;9.256;2023-04-25T06:51:05;14.10;1.00
435;DHT22;204;48.942;9.256;2023-04-25T06:53:30;14.40;1.00
435;DHT22;204;48.942;9.256;2023-04-25T06:55:56;14.60;1.00
435;DHT22;204;48.942;9.256;2023-04-25T06:58:21;14.70;1.00
435;DHT22;204;48.942;9.256;2023-04-25T07:00:47;14.80;1.00
435;DHT22;204;48.942;9.256;2023-04-25T07:03:13;15.10;1.00
435;DHT22;204;48.942;9.256;2023-04-25T07:05:38;15.10;1.00
435;DHT22;204;48.942;9.256;2023-04-25T07:08:04;15.10;1.00
435;DHT22;204;48.942;9.256;2023-04-25T07:10:30;14.90;1.00
435;DHT22;204;48.942;9.256;2023-04-25T07:12:55;14.60;1.00
435;DHT22;204;48.942;9.256;2023-04-25T07:15:21;14.40;1.00
435;DHT22;204;48.942;9.256;2023-04-25T07:17:46;14.10;1.00
435;DHT22;204;48.942;9.256;2023-04-25T07:20:12;14.00;1.00
435;DHT22;204;48.942;9.256;2023-04-25T07:22:38;13.80;1.00
435;DHT22;204;48.942;9.256;2023-04-25T07:25:03;13.60;1.00
435;DHT22;204;48.942;9.256;2023-04-25T07:27:30;13.50;1.00
435;DHT22;204;48.942;9.256;2023-04-25T07:29:56;13.30;1.00
435;DHT22;204;48.942;9.256;2023-04-25T07:32:21;13.20;1.00
435;DHT22;204;48.942;9.256;2023-04-25T07:34:47;13.10;1.00
435;DHT22;204;48.942;9.256;2023-04-25T07:37:13;13.00;1.00
435;DHT22;204;48.942;9.256;2023-04-25T07:39:39;12.90;1.00
435;DHT22;204;48.942;9.256;2023-04-25T07:42:05;12.70;1.00
435;DHT22;204;48.942;9.256;2023-04-25T07:44:33;12.60;1.00
435;DHT22;204;48.942;9.256;2023-04-25T07:47:04;12.60;1.00
435;DHT22;204;48.942;9.256;2023-04-25T07:49:32;12.50;1.00
435;DHT22;204;48.942;9.256;2023-04-25T07:51:58;12.40;1.00
435;DHT22;204;48.942;9.256;2023-04-25T07:54:24;12.40;1.00
435;DHT22;204;48.942;9.256;2023-04-25T07:56:50;12.30;1.00
435;DHT22;204;48.942;9.256;2023-04-25T07:59:16;12.30;1.00
435;DHT22;204;48.942;9.256;2023-04-25T08:01:41;12.20;1.00
435;DHT22;204;48.942;9.256;2023-04-25T08:04:07;12.20;1.00
435;DHT22;204;48.942;9.256;2023-04-25T08:06:32;12.10;1.00
435;DHT22;204;48.942;9.256;2023-04-25T08:08:58;12.00;1.00
435;DHT22;204;48.942;9.256;2023-04-25T08:11:24;11.90;1.00
435;DHT22;204;48.942;9.256;2023-04-25T08:13:50;11.80;1.00
435;DHT22;204;48.942;9.256;2023-04-25T08:16:16;11.80;1.00
435;DHT22;204;48.942;9.256;2023-04-25T08:18:41;11.70;1.00
435;DHT22;204;48.942;9.256;2023-04-25T08:21:07;11.70;1.00
435;DHT22;204;48.942;9.256;2023-04-25T08:23:34;11.70;1.00
435;DHT22;204;48.942;9.256;2023-04-25T08:26:00;11.80;1.00
435;DHT22;204;48.942;9.256;2023-04-25T08:28:25;11.90;1.00
435;DHT22;204;48.942;9.256;2023-04-25T08:30:51;12.00;1.00
435;DHT22;204;48.942;9.256;2023-04-25T08:33:16;12.10;1.00
435;DHT22;204;48.942;9.256;2023-04-25T08:35:44;12.20;1.00
435;DHT22;204;48.942;9.256;2023-04-25T08:38:09;12.20;1.00
435;DHT22;204;48.942;9.256;2023-04-25T08:40:38;12.20;1.00
435;DHT22;204;48.942;9.256;2023-04-25T08:43:08;12.20;1.00
435;DHT22;204;48.942;9.256;2023-04-25T08:45:40;12.20;1.00
435;DHT22;204;48.942;9.256;2023-04-25T08:48:10;12.30;1.00
435;DHT22;204;48.942;9.256;2023-04-25T08:50:55;12.40;1.00
435;DHT22;204;48.942;9.256;2023-04-25T08:53:32;12.50;1.00
435;DHT22;204;48.942;9.256;2023-04-25T08:55:59;12.70;1.00
435;DHT22;204;48.942;9.256;2023-04-25T08:58:27;12.90;1.00
435;DHT22;204;48.942;9.256;2023-04-25T09:00:53;13.10;1.00
435;DHT22;204;48.942;9.256;2023-04-25T09:03:19;13.40;1.00
435;DHT22;204;48.942;9.256;2023-04-25T09:05:45;13.70;1.00
435;DHT22;204;48.942;9.256;2023-04-25T09:08:10;14.10;1.00
435;DHT22;204;48.942;9.256;2023-04-25T09:10:37;14.50;1.00
435;DHT22;204;48.942;9.256;2023-04-25T09:13:13;14.80;1.00
435;DHT22;204;48.942;9.256;2023-04-25T09:15:51;15.10;1.00
435;DHT22;204;48.942;9.256;2023-04-25T09:18:27;15.20;1.00
435;DHT22;204;48.942;9.256;2023-04-25T09:20:54;15.20;1.00
435;DHT22;204;48.942;9.256;2023-04-25T09:23:23;15.30;1.00
435;DHT22;204;48.942;9.256;2023-04-25T09:25:51;15.20;1.00
435;DHT22;204;48.942;9.256;2023-04-25T09:28:23;15.10;1.00
435;DHT22;204;48.942;9.256;2023-04-25T09:30:55;15.00;1.00
435;DHT22;204;48.942;9.256;2023-04-25T09:33:31;14.80;1.00
435;DHT22;204;48.942;9.256;2023-04-25T09:36:05;14.50;1.00
435;DHT22;204;48.942;9.256;2023-04-25T09:38:39;14.30;1.00
435;DHT22;204;48.942;9.256;2023-04-25T09:41:05;14.20;1.00
435;DHT22;204;48.942;9.256;2023-04-25T09:43:31;13.90;1.00
435;DHT22;204;48.942;9.256;2023-04-25T09:45:57;13.90;1.00
435;DHT22;204;48.942;9.256;2023-04-25T09:48:25;13.90;1.00
435;DHT22;204;48.942;9.256;2023-04-25T09:51:12;13.90;1.00
435;DHT22;204;48.942;9.256;2023-04-25T09:53:40;13.90;1.00
435;DHT22;204;48.942;9.256;2023-04-25T09:56:08;13.80;1.00
435;DHT22;204;48.942;9.256;2023-04-25T09:58:35;13.80;1.00
435;DHT22;204;48.942;9.256;2023-04-25T10:01:03;13.70;1.00
435;DHT22;204;48.942;9.256;2023-04-25T10:03:33;13.70;1.00
435;DHT22;204;48.942;9.256;2023-04-25T10:06:00;13.70;1.00
435;DHT22;204;48.942;9.256;2023-04-25T10:08:33;13.60;1.00
435;DHT22;204;48.942;9.256;2023-04-25T10:11:04;13.40;1.00
435;DHT22;204;48.942;9.256;2023-04-25T10:13:31;13.50;1.00
435;DHT22;204;48.942;9.256;2023-04-25T10:15:58;13.60;1.00
435;DHT22;204;48.942;9.256;2023-04-25T10:18:25;13.60;1.00
435;DHT22;204;48.942;9.256;2023-04-25T10:20:57;13.60;1.00
435;DHT22;204;48.942;9.256;2023-04-25T10:23:24;13.50;1.00
435;DHT22;204;48.942;9.256;2023-04-25T10:25:51;13.40;1.00
435;DHT22;204;48.942;9.256;2023-04-25T10:28:18;13.20;1.00
435;DHT22;204;48.942;9.256;2023-04-25T10:31:00;12.80;1.00
435;DHT22;204;48.942;9.256;2023-04-25T10:33:38;12.20;1.00
435;DHT22;204;48.942;9.256;2023-04-25T10:36:20;11.80;1.00
435;DHT22;204;48.942;9.256;2023-04-25T10:38:47;11.10;1.00
435;DHT22;204;48.942;9.256;2023-04-25T10:41:14;10.50;1.00
435;DHT22;204;48.942;9.256;2023-04-25T10:43:44;10.10;1.00
435;DHT22;204;48.942;9.256;2023-04-25T10:46:29;9.90;1.00
435;DHT22;204;48.942;9.256;2023-04-25T10:49:00;9.80;1.00
435;DHT22;204;48.942;9.256;2023-04-25T10:51:31;9.70;1.00
435;DHT22;204;48.942;9.256;2023-04-25T10:54:02;9.70;1.00
435;DHT22;204;48.942;9.256;2023-04-25T10:56:32;9.70;1.00
435;DHT22;204;48.942;9.256;2023-04-25T10:59:07;9.80;1.00
435;DHT22;204;48.942;9.256;2023-04-25T11:04:02;9.90;1.00
435;DHT22;204;48.942;9.256;2023-04-25T11:09:24;10.10;1.00
435;DHT22;204;48.942;9.256;2023-04-25T11:11:54;10.20;1.00
435;DHT22;204;48.942;9.256;2023-04-25T11:14:20;10.30;1.00
435;DHT22;204;48.942;9.256;2023-04-25T11:16:47;10.50;1.00
435;DHT22;204;48.942;9.256;2023-04-25T11:19:12;10.60;1.00
435;DHT22;204;48.942;9.256;2023-04-25T11:21:38;10.60;1.00
435;DHT22;204;48.942;9.256;2023-04-25T11:24:04;10.80;1.00
435;DHT22;204;48.942;9.256;2023-04-25T11:26:30;10.90;1.00
435;DHT22;204;48.942;9.256;2023-04-25T11:28:59;11.10;1.00
435;DHT22;204;48.942;9.256;2023-04-25T11:31:25;11.40;1.00
435;DHT22;204;48.942;9.256;2023-04-25T11:33:53;11.70;1.00
435;DHT22;204;48.942;9.256;2023-04-25T11:36:20;12.10;1.00
435;DHT22;204;48.942;9.256;2023-04-25T11:38:45;12.50;1.00
435;DHT22;204;48.942;9.256;2023-04-25T11:41:11;12.90;1.00
435;DHT22;204;48.942;9.256;2023-04-25T11:43:37;13.40;1.00
435;DHT22;204;48.942;9.256;2023-04-25T11:46:06;13.60;1.00
435;DHT22;204;48.942;9.256;2023-04-25T11:48:42;13.80;1.00
435;DHT22;204;48.942;9.256;2023-04-25T11:51:08;13.90;1.00
435;DHT22;204;48.942;9.256;2023-04-25T11:53:34;14.00;1.00
435;DHT22;204;48.942;9.256;2023-04-25T11:56:01;13.90;1.00
435;DHT22;204;48.942;9.256;2023-04-25T11:58:27;13.80;1.00
435;DHT22;204;48.942;9.256;2023-04-25T12:00:53;13.90;1.00
435;DHT22;204;48.942;9.256;2023-04-25T12:03:19;14.00;1.00
435;DHT22;204;48.942;9.256;2023-04-25T12:05:45;14.10;1.00
435;DHT22;204;48.942;9.256;2023-04-25T12:08:13;14.20;1.00
435;DHT22;204;48.942;9.256;2023-04-25T12:10:40;14.40;1.00
435;DHT22;204;48.942;9.256;2023-04-25T12:15:45;14.70;1.00
435;DHT22;204;48.942;9.256;2023-04-25T12:18:10;14.80;1.00
435;DHT22;204;48.942;9.256;2023-04-25T12:20:36;15.00;1.00
435;DHT22;204;48.942;9.256;2023-04-25T12:23:05;15.00;1.00
435;DHT22;204;48.942;9.256;2023-04-25T12:28:23;15.50;1.00
435;DHT22;204;48.942;9.256;2023-04-25T12:30:59;15.70;1.00
435;DHT22;204;48.942;9.256;2023-04-25T12:33:28;15.80;1.00
435;DHT22;204;48.942;9.256;2023-04-25T12:35:54;15.80;1.00
435;DHT22;204;48.942;9.256;2023-04-25T12:38:27;15.70;1.00
435;DHT22;204;48.942;9.256;2023-04-25T12:40:54;15.50;1.00
435;DHT22;204;48.942;9.256;2023-04-25T12:43:20;15.50;1.00
435;DHT22;204;48.942;9.256;2023-04-25T12:45:54;15.70;1.00
435;DHT22;204;48.942;9.256;2023-04-25T12:48:20;15.70;1.00
435;DHT22;204;48.942;9.256;2023-04-25T12:50:46;15.60;1.00
435;DHT22;204;48.942;9.256;2023-04-25T12:53:14;15.80;1.00
435;DHT22;204;48.942;9.256;2023-04-25T12:55:40;15.80;1.00
435;DHT22;204;48.942;9.256;2023-04-25T12:58:06;16.00;1.00
435;DHT22;204;48.942;9.256;2023-04-25T13:00:33;16.00;1.00
435;DHT22;204;48.942;9.256;2023-04-25T13:02:58;16.10;1.00
435;DHT22;204;48.942;9.256;2023-04-25T13:05:25;16.10;1.00
435;DHT22;204;48.942;9.256;2023-04-25T13:07:51;16.00;1.00
435;DHT22;204;48.942;9.256;2023-04-25T13:10:17;16.00;1.00
435;DHT22;204;48.942;9.256;2023-04-25T13:12:43;15.90;1.00
435;DHT22;204;48.942;9.256;2023-04-25T13:15:09;16.10;1.00
435;DHT22;204;48.942;9.256;2023-04-25T13:17:37;16.40;1.00
435;DHT22;204;48.942;9.256;2023-04-25T13:20:07;16.60;1.00
435;DHT22;204;48.942;9.256;2023-04-25T13:22:34;16.70;1.00
435;DHT22;204;48.942;9.256;2023-04-25T13:25:02;16.60;1.00
435;DHT22;204;48.942;9.256;2023-04-25T13:27:28;16.40;1.00
435;DHT22;204;48.942;9.256;2023-04-25T13:29:54;16.30;1.00
435;DHT22;204;48.942;9.256;2023-04-25T13:32:20;16.20;1.00
435;DHT22;204;48.942;9.256;2023-04-25T13:34:45;16.10;1.00
435;DHT22;204;48.942;9.256;2023-04-25T13:37:11;16.10;1.00
435;DHT22;204;48.942;9.256;2023-04-25T13:39:36;16.00;1.00
435;DHT22;204;48.942;9.256;2023-04-25T13:42:02;15.80;1.00
435;DHT22;204;48.942;9.256;2023-04-25T13:44:28;15.70;1.00
435;DHT22;204;48.942;9.256;2023-04-25T13:46:53;15.60;1.00
435;DHT22;204;48.942;9.256;2023-04-25T13:49:19;15.60;1.00
435;DHT22;204;48.942;9.256;2023-04-25T13:51:45;15.70;1.00
435;DHT22;204;48.942;9.256;2023-04-25T13:54:10;15.80;1.00
435;DHT22;204;48.942;9.256;2023-04-25T13:56:36;15.80;1.00
435;DHT22;204;48.942;9.256;2023-04-25T13:59:02;15.70;1.00
435;DHT22;204;48.942;9.256;2023-04-25T14:01:28;15.60;1.00
435;DHT22;204;48.942;9.256;2023-04-25T14:03:55;15.60;1.00
435;DHT22;204;48.942;9.256;2023-04-25T14:06:21;15.60;1.00
435;DHT22;204;48.942;9.256;2023-04-25T14:08:50;15.60;1.00
435;DHT22;204;48.942;9.256;2023-04-25T14:11:15;15.60;1.00
435;DHT22;204;48.942;9.256;2023-04-25T14:13:43;15.70;1.00
435;DHT22;204;48.942;9.256;2023-04-25T14:16:09;15.70;1.00
435;DHT22;204;48.942;9.256;2023-04-25T14:18:35;16.00;1.00
435;DHT22;204;48.942;9.256;2023-04-25T14:21:00;16.10;1.00
435;DHT22;204;48.942;9.256;2023-04-25T14:23:26;16.10;1.00
435;DHT22;204;48.942;9.256;2023-04-25T14:25:52;15.90;1.00
435;DHT22;204;48.942;9.256;2023-04-25T14:28:18;15.90;1.00
435;DHT22;204;48.942;9.256;2023-04-25T14:30:43;15.70;1.00
435;DHT22;204;48.942;9.256;2023-04-25T14:33:09;15.50;1.00
435;DHT22;204;48.942;9.256;2023-04-25T14:35:35;15.40;1.00
435;DHT22;204;48.942;9.256;2023-04-25T14:38:00;15.20;1.00
435;DHT22;204;48.942;9.256;2023-04-25T14:40:26;15.00;1.00
435;DHT22;204;48.942;9.256;2023-04-25T14:42:52;14.90;1.00
435;DHT22;204;48.942;9.256;2023-04-25T14:45:17;14.90;1.00
435;DHT22;204;48.942;9.256;2023-04-25T14:47:43;14.80;1.00
435;DHT22;204;48.942;9.256;2023-04-25T14:50:09;15.00;1.00
435;DHT22;204;48.942;9.256;2023-04-25T14:52:35;15.10;1.00
435;DHT22;204;48.942;9.256;2023-04-25T14:55:01;15.00;1.00
435;DHT22;204;48.942;9.256;2023-04-25T14:57:32;15.00;1.00
435;DHT22;204;48.942;9.256;2023-04-25T14:59:57;14.90;1.00
435;DHT22;204;48.942;9.256;2023-04-25T15:02:24;15.00;1.00
435;DHT22;204;48.942;9.256;2023-04-25T15:04:49;15.20;1.00
435;DHT22;204;48.942;9.256;2023-04-25T15:07:15;15.30;1.00
435;DHT22;204;48.942;9.256;2023-04-25T15:09:41;15.40;1.00
435;DHT22;204;48.942;9.256;2023-04-25T15:12:07;15.50;1.00
435;DHT22;204;48.942;9.256;2023-04-25T15:14:33;15.50;1.00
435;DHT22;204;48.942;9.256;2023-04-25T15:16:59;15.40;1.00
435;DHT22;204;48.942;9.256;2023-04-25T15:19:25;15.50;1.00
435;DHT22;204;48.942;9.256;2023-04-25T15:21:51;15.50;1.00
435;DHT22;204;48.942;9.256;2023-04-25T15:24:16;15.50;1.00
435;DHT22;204;48.942;9.256;2023-04-25T15:26:43;15.60;1.00
435;DHT22;204;48.942;9.256;2023-04-25T15:29:09;15.50;1.00
435;DHT22;204;48.942;9.256;2023-04-25T15:31:35;15.50;1.00
435;DHT22;204;48.942;9.256;2023-04-25T15:34:01;15.60;1.00
435;DHT22;204;48.942;9.256;2023-04-25T15:36:26;15.70;1.00
435;DHT22;204;48.942;9.256;2023-04-25T15:38:52;15.70;1.00
435;DHT22;204;48.942;9.256;2023-04-25T15:41:18;15.60;1.00
435;DHT22;204;48.942;9.256;2023-04-25T15:43:43;15.70;1.00
435;DHT22;204;48.942;9.256;2023-04-25T15:46:09;15.70;1.00
435;DHT22;204;48.942;9.256;2023-04-25T15:48:34;15.80;1.00
435;DHT22;204;48.942;9.256;2023-04-25T15:51:00;15.90;1.00
435;DHT22;204;48.942;9.256;2023-04-25T15:53:26;15.80;1.00
435;DHT22;204;48.942;9.256;2023-04-25T15:55:52;15.70;1.00
435;DHT22;204;48.942;9.256;2023-04-25T15:58:17;15.40;1.00
435;DHT22;204;48.942;9.256;2023-04-25T16:00:43;15.20;1.00
435;DHT22;204;48.942;9.256;2023-04-25T16:03:10;14.90;1.00
435;DHT22;204;48.942;9.256;2023-04-25T16:05:36;14.60;1.00
435;DHT22;204;48.942;9.256;2023-04-25T16:08:02;14.50;1.00
435;DHT22;204;48.942;9.256;2023-04-25T16:10:28;14.40;1.00
435;DHT22;204;48.942;9.256;2023-04-25T16:12:54;14.30;1.00
435;DHT22;204;48.942;9.256;2023-04-25T16:15:20;14.10;1.00
435;DHT22;204;48.942;9.256;2023-04-25T16:17:45;13.80;1.00
435;DHT22;204;48.942;9.256;2023-04-25T16:20:11;13.70;1.00
435;DHT22;204;48.942;9.256;2023-04-25T16:22:41;13.60;1.00
435;DHT22;204;48.942;9.256;2023-04-25T16:25:08;13.60;1.00
435;DHT22;204;48.942;9.256;2023-04-25T16:27:35;13.60;1.00
435;DHT22;204;48.942;9.256;2023-04-25T16:30:03;13.70;1.00
435;DHT22;204;48.942;9.256;2023-04-25T16:32:29;13.70;1.00
435;DHT22;204;48.942;9.256;2023-04-25T16:34:55;13.80;1.00
435;DHT22;204;48.942;9.256;2023-04-25T16:37:21;13.80;1.00
435;DHT22;204;48.942;9.256;2023-04-25T16:39:46;13.90;1.00
435;DHT22;204;48.942;9.256;2023-04-25T16:42:12;13.90;1.00
435;DHT22;204;48.942;9.256;2023-04-25T16:44:38;13.90;1.00
435;DHT22;204;48.942;9.256;2023-04-25T16:47:03;13.90;1.00
435;DHT22;204;48.942;9.256;2023-04-25T16:49:30;13.80;1.00
435;DHT22;204;48.942;9.256;2023-04-25T16:51:56;13.60;1.00
435;DHT22;204;48.942;9.256;2023-04-25T16:54:21;13.50;1.00
435;DHT22;204;48.942;9.256;2023-04-25T16:56:50;13.40;1.00
435;DHT22;204;48.942;9.256;2023-04-25T16:59:15;13.20;1.00
435;DHT22;204;48.942;9.256;2023-04-25T17:01:41;13.10;1.00
435;DHT22;204;48.942;9.256;2023-04-25T17:04:07;12.90;1.00